Change the Weather History Date:

Thursday, May 16, 2013

  Actual Average Record
Temperature  
Mean Temperature 71 °F -  
Max Temperature 78 °F 78 °F - ()
Min Temperature 64 °F 62 °F - ()
Cooling Degree Days 6    
Growing Degree Days 21 (Base 50)    
Moisture  
Dew Point 61 °F    
Average Humidity 76    
Maximum Humidity 94    
Minimum Humidity 52    
Precipitation  
Precipitation 0.00 in 0.01 in - ()
Sea Level Pressure  
Sea Level Pressure 29.55 in    
Wind  
Wind Speed 18 mph ()    
Max Wind Speed 36 mph    
Max Gust Speed 47 mph    
Visibility 3.4 miles    
Events Rain    
T = Trace of Precipitation, MM = Missing Value Source: Averaged Metar Reports

Daily Weather History Graph

Daily Weather History Graph

Search for Another Location

Airport or City:

Trip Planner

Search our weather history database for the weather conditions in past years. The results will help you decide how hot, cold, wet, or windy it might be!

Date:

Astronomy

May. 16, 2013 Rise Set
Actual Time 5:55 AM CEST 8:01 PM CEST
Civil Twilight 5:27 AM CEST 8:30 PM CEST
Nautical Twilight 4:52 AM CEST 9:04 PM CEST
Astronomical Twilight 4:15 AM CEST 9:42 PM CEST
Moon 11:09 AM CEST (5/16) 12:15 AM CEST (5/16)
Length of Visible Light 15h 02m
Length of Day
14h 05m
Waxing Crescent, 33% of the Moon is Illuminated
May 16
Waxing Crescent
May 18
First Quarter
May 25
Full
May 31
Last Quarter
Jun 8
New

Hourly Weather History & Observations

Time (CEST) Temp. Dew Point Humidity Pressure Visibility Wind Dir Wind Speed Gust Speed Precip Events Conditions
12:15 AM 66.2 °F 59.0 °F 78% 29.71 in - ESE 23.0 mph - N/A   Clear
12:45 AM 66.2 °F 59.0 °F 78% 29.68 in - SE 23.0 mph - N/A   Clear
1:15 AM 64.4 °F 59.0 °F 83% 29.68 in - SE 24.2 mph - N/A   Clear
1:45 AM 64.4 °F 59.0 °F 83% 29.65 in - SE 24.2 mph - N/A   Clear
2:00 AM 65 °F 59 °F 76% 29.65 in 6 mi SE 24.2 mph - -  
2:15 AM 66.2 °F 59.0 °F 78% 29.62 in - SE 25.3 mph - N/A   Clear
2:45 AM 66.2 °F 59.0 °F 78% 29.62 in - SE 27.6 mph - N/A   Clear
3:15 AM 66.2 °F 57.2 °F 73% 29.59 in - SE 31.1 mph - N/A   Clear
3:45 AM 66.2 °F 57.2 °F 73% 29.59 in - SE 26.5 mph 38.0 mph N/A   Clear
4:15 AM 66.2 °F 59.0 °F 78% 29.56 in - SE 25.3 mph - N/A   Clear
4:45 AM 66.2 °F 59.0 °F 78% 29.53 in - SE 26.5 mph - N/A   Clear
5:15 AM 66.2 °F 59.0 °F 78% 29.50 in 5.6 mi SE 35.7 mph - N/A   Unknown
5:45 AM 66.2 °F 59.0 °F 78% 29.50 in 5.6 mi SE 34.5 mph 47.2 mph N/A   Unknown
6:15 AM 66.2 °F 59.0 °F 78% 29.50 in 5.6 mi SE 31.1 mph - N/A   Unknown
6:45 AM 66.2 °F 60.8 °F 83% 29.50 in 5.0 mi SE 29.9 mph - N/A   Unknown
7:15 AM 66.2 °F 60.8 °F 83% 29.50 in 5.0 mi SE 25.3 mph - N/A   Unknown
7:45 AM 68.0 °F 60.8 °F 78% 29.53 in 5.0 mi East 11.5 mph - N/A   Unknown
8:00 AM 67 °F 60 °F 73% 29.53 in 5 mi ESE 15.0 mph - -  
8:15 AM 69.8 °F 59.0 °F 68% 29.53 in 5.0 mi ESE 16.1 mph - N/A   Unknown
8:45 AM 68.0 °F 60.8 °F 78% 29.53 in 4.3 mi ESE 13.8 mph - N/A   Unknown
9:15 AM 68.0 °F 60.8 °F 78% 29.50 in 4.3 mi East 9.2 mph - N/A   Unknown
9:45 AM 69.8 °F 60.8 °F 73% 29.50 in 3.7 mi East 6.9 mph - N/A   Unknown
10:15 AM 69.8 °F 60.8 °F 73% 29.50 in 4.3 mi ENE 11.5 mph - N/A   Unknown
10:45 AM 71.6 °F 60.8 °F 69% 29.50 in 4.3 mi East 12.7 mph - N/A   Unknown
11:00 AM 72 °F 61 °F 60% 29.49 in 4 mi East 13.8 mph - - Rain Light Rain
11:15 AM 71.6 °F 60.8 °F 69% 29.50 in 3.7 mi East 15.0 mph - N/A   Unknown
11:45 AM 71.6 °F 60.8 °F 69% 29.50 in 3.7 mi East 13.8 mph - N/A   Unknown
12:15 PM 73.4 °F 60.8 °F 65% 29.50 in 3.1 mi ESE 11.5 mph - N/A   Haze
12:45 PM 73.4 °F 60.8 °F 65% 29.50 in 2.5 mi ESE 10.4 mph - N/A   Haze
1:15 PM 73.4 °F 60.8 °F 65% 29.50 in 2.5 mi SE 11.5 mph - N/A   Haze
1:45 PM 73.4 °F 60.8 °F 65% 29.50 in 1.9 mi SSE 12.7 mph - N/A   Haze
2:00 PM 76 °F 62 °F 52% 29.48 in 2 mi South 11.5 mph - -   Widespread Dust
2:15 PM 77.0 °F 62.6 °F 61% 29.47 in 1.0 mi South 12.7 mph - N/A   Haze
2:45 PM 77.0 °F 62.6 °F 61% 29.47 in 0.9 mi SSW 13.8 mph - N/A   Haze
3:05 PM 73.4 °F 64.4 °F 73% 29.47 in 1.2 mi SW 19.6 mph - N/A   Haze
3:15 PM 73.4 °F 64.4 °F 73% 29.47 in 1.2 mi WSW 19.6 mph - N/A   Haze
3:45 PM 73.4 °F 62.6 °F 69% 29.47 in 2.5 mi WSW 19.6 mph - N/A   Haze
4:15 PM 71.6 °F 62.6 °F 73% 29.50 in 3.1 mi WSW 19.6 mph - N/A   Haze
4:45 PM 71.6 °F 62.6 °F 73% 29.50 in 3.1 mi WSW 17.3 mph - N/A   Haze
5:00 PM 74 °F 63 °F 61% 29.50 in 3 mi WSW 13.8 mph - -   Widespread Dust
5:15 PM 73.4 °F 62.6 °F 69% 29.50 in 3.1 mi WSW 17.3 mph - N/A   Haze
5:45 PM 75.2 °F 62.6 °F 65% 29.50 in 3.1 mi West 11.5 mph - N/A   Haze
6:15 PM 71.6 °F 62.6 °F 73% 29.53 in 3.1 mi West 13.8 mph - N/A   Haze
6:45 PM 71.6 °F 62.6 °F 73% 29.53 in 2.5 mi West 9.2 mph - N/A   Haze
7:15 PM 71.6 °F 62.6 °F 73% 29.53 in 2.5 mi WSW 3.5 mph - N/A   Haze
7:45 PM 69.8 °F 62.6 °F 78% 29.56 in 2.5 mi WSW 4.6 mph - N/A   Haze
8:00 PM 70 °F 62 °F 70% 29.56 in 2 mi WNW 9.2 mph - -   Widespread Dust
8:15 PM 68.0 °F 62.6 °F 83% 29.56 in 2.5 mi NW 10.4 mph - N/A   Haze
8:45 PM 66.2 °F 62.6 °F 88% 29.59 in 2.5 mi NW 6.9 mph - N/A   Haze
9:04 PM 66.2 °F 62.6 °F 88% 29.59 in - North 10.4 mph - N/A Rain Rain
9:05 PM 66.2 °F 62.6 °F 88% 29.59 in - North 10.4 mph - N/A   Unknown
9:15 PM 66.2 °F 62.6 °F 88% 29.59 in - North 11.5 mph - N/A   Unknown
9:45 PM 66.2 °F 62.6 °F 88% 29.62 in - NNW 11.5 mph - N/A   Unknown
10:15 PM 66.2 °F 62.6 °F 88% 29.62 in - North 16.1 mph - N/A   Haze
10:45 PM 64.4 °F 62.6 °F 94% 29.65 in 2.5 mi North 11.5 mph - N/A   Haze
11:00 PM 65 °F 62 °F 85% 29.66 in 3 mi NNE 9.2 mph - -   Haze
11:09 PM 64.4 °F 60.8 °F 88% 29.65 in 3.1 mi NNE 9.2 mph - N/A   Haze
11:15 PM 64.4 °F 60.8 °F 88% 29.65 in 3.7 mi NNE 9.2 mph - N/A   Haze
11:45 PM 64.4 °F 60.8 °F 88% 29.68 in 3.7 mi North 8.1 mph - N/A   Haze